Terminal Aerodrome Forecast
Issued by NWS

Home | Current Version | Previous Version | Text Only | Print | Product List | Glossary On
Versions: 1 2 3 4 5 6 7 8 9 10 11 12 13 14 15 16 17 18 19 20 21 22 23 24 25
636
FTUS43 KLSX 271503 AAA
TAFSUS
TAF AMD
KSUS 271503Z 2715/2812 15007KT P6SM BKN012
     FM271700 16008KT P6SM SCT040 BKN100
     FM272100 17010KT 6SM -SHRA VCTS SCT050CB BKN100
     FM280300 17008KT P6SM SCT050 BKN100=

USA.gov is the U.S. government's official web portal to all federal, state and local government web resources and services.